Time;durP1;ratioP1;P1;durP2;ratioP2;P2;SDS_P1;SDS_P2;PMS_P1;PMS_P2;Temp;Humidity;BMP_temperature;BMP_pressure;BME280_temperature;BME280_humidity;BME280_pressure;Samples;Min_cycle;Max_cycle;Signal;HPM_P1;HPM_P2
2023/01/19 00:01:53;;;;;;;14.33;5.73;;;0.40;62.50;;;;;;5006083;28;46429;-63
2023/01/19 00:04:19;;;;;;;10.10;6.17;;;0.30;62.40;;;;;;5006439;28;45795;-65
2023/01/19 00:06:44;;;;;;;10.67;6.23;;;0.30;62.40;;;;;;5008225;28;46434;-63
2023/01/19 00:09:10;;;;;;;11.93;6.10;;;0.30;62.30;;;;;;5004401;28;46423;-63
2023/01/19 00:11:35;;;;;;;11.53;6.10;;;0.40;62.30;;;;;;5006297;28;46576;-64
2023/01/19 00:14:01;;;;;;;9.93;5.80;;;0.30;62.10;;;;;;5005902;28;45957;-64
2023/01/19 00:16:27;;;;;;;10.37;5.53;;;0.50;62.90;;;;;;5007917;28;46394;-64
2023/01/19 00:18:52;;;;;;;10.37;6.60;;;0.60;61.10;;;;;;5005844;28;46492;-63
2023/01/19 00:21:20;;;;;;;11.33;6.03;;;0.70;60.50;;;;;;5006915;28;46589;-64
2023/01/19 00:23:46;;;;;;;10.40;6.15;;;0.80;60.20;;;;;;5005976;28;46566;-64
2023/01/19 00:26:14;;;;;;;12.40;6.83;;;0.90;59.90;;;;;;5006088;28;46416;-65
2023/01/19 00:28:41;;;;;;;9.10;5.85;;;0.90;59.60;;;;;;5006589;28;46026;-64
2023/01/19 00:31:06;;;;;;;17.17;6.15;;;1.00;59.60;;;;;;5006175;28;46145;-65
2023/01/19 00:33:32;;;;;;;8.20;5.60;;;1.00;59.40;;;;;;5006909;28;46520;-64
2023/01/19 00:35:57;;;;;;;8.40;5.50;;;1.10;59.20;;;;;;5006023;28;46351;-64
2023/01/19 00:38:23;;;;;;;9.50;5.50;;;1.10;60.20;;;;;;5005839;28;46481;-64
2023/01/19 00:40:49;;;;;;;11.87;6.63;;;1.10;58.90;;;;;;5008166;28;46434;-63
2023/01/19 00:43:14;;;;;;;12.90;6.50;;;1.10;59.10;;;;;;5007169;28;45852;-65
2023/01/19 00:45:40;;;;;;;9.77;6.37;;;1.20;59.10;;;;;;5007815;28;46510;-65
2023/01/19 00:48:07;;;;;;;13.55;6.70;;;1.10;59.00;;;;;;5007098;28;46512;-64
2023/01/19 00:50:33;;;;;;;10.13;6.40;;;1.10;59.00;;;;;;5008211;28;46346;-65
2023/01/19 00:53:02;;;;;;;12.23;6.75;;;1.00;59.00;;;;;;5005852;28;46331;-64
2023/01/19 00:55:29;;;;;;;12.05;6.85;;;1.00;59.10;;;;;;5006736;28;46548;-65
2023/01/19 00:57:55;;;;;;;11.55;7.40;;;1.10;59.10;;;;;;5004109;28;46402;-64
2023/01/19 01:00:22;;;;;;;12.27;6.95;;;1.10;58.90;;;;;;5005299;28;46577;-64
2023/01/19 01:02:51;;;;;;;12.85;6.97;;;1.10;58.80;;;;;;5005756;28;47276;-64
2023/01/19 01:05:17;;;;;;;14.18;6.68;;;1.20;58.70;;;;;;5007005;28;46385;-63
2023/01/19 01:07:44;;;;;;;11.65;7.43;;;1.20;59.50;;;;;;5005825;28;46425;-65
2023/01/19 01:10:25;;;;;;;11.40;7.10;;;1.20;58.70;;;;;;5006707;28;46283;-63
2023/01/19 01:12:51;;;;;;;14.00;7.40;;;1.10;58.50;;;;;;5005316;28;46402;-64
2023/01/19 01:15:18;;;;;;;12.53;6.63;;;1.20;58.50;;;;;;5005606;28;45807;-64
2023/01/19 01:17:47;;;;;;;11.35;7.07;;;1.10;58.30;;;;;;5004759;28;46517;-65
2023/01/19 01:20:15;;;;;;;13.05;6.80;;;1.20;58.00;;;;;;5002105;28;46456;-63
2023/01/19 01:22:44;;;;;;;11.65;6.75;;;1.20;57.90;;;;;;5005636;28;46358;-62
2023/01/19 01:25:11;;;;;;;12.77;7.25;;;1.20;57.90;;;;;;5005928;28;46491;-63
2023/01/19 01:27:36;;;;;;;12.35;7.32;;;1.20;57.90;;;;;;5005783;28;46467;-64
2023/01/19 01:30:02;;;;;;;13.20;6.73;;;1.20;57.90;;;;;;5005167;28;46472;-64
2023/01/19 01:32:28;;;;;;;12.37;7.47;;;1.20;57.90;;;;;;5007390;28;46648;-64
2023/01/19 01:34:54;;;;;;;12.50;7.37;;;1.20;57.90;;;;;;5006842;28;46395;-63
2023/01/19 01:37:19;;;;;;;12.23;6.97;;;1.20;58.00;;;;;;5007332;28;46360;-65
2023/01/19 01:39:45;;;;;;;15.27;8.10;;;1.20;57.90;;;;;;5007321;28;46617;-66
2023/01/19 01:42:16;;;;;;;16.00;7.57;;;1.20;57.90;;;;;;5004123;28;46374;-64
2023/01/19 01:44:51;;;;;;;10.95;6.88;;;1.10;58.00;;;;;;5006832;28;46543;-65
2023/01/19 01:47:41;;;;;;;12.00;7.32;;;1.10;57.90;;;;;;5005996;28;46082;-64
2023/01/19 01:50:15;;;;;;;10.48;6.82;;;1.10;57.90;;;;;;5006972;28;46335;-65
2023/01/19 01:52:48;;;;;;;11.50;7.20;;;1.10;57.90;;;;;;5003621;28;46366;-63
2023/01/19 01:55:15;;;;;;;12.40;7.80;;;1.10;58.00;;;;;;5005957;28;46468;-63
2023/01/19 01:57:47;;;;;;;8.43;6.40;;;1.00;58.10;;;;;;5006752;28;46337;-64
2023/01/19 02:00:13;;;;;;;15.73;7.90;;;1.00;58.30;;;;;;5006726;28;47254;-64
2023/01/19 02:02:53;;;;;;;16.60;6.95;;;1.00;58.00;;;;;;5008895;28;45923;-64
2023/01/19 02:05:25;;;;;;;12.38;7.85;;;1.00;57.90;;;;;;5006103;28;46497;-65
2023/01/19 02:13:31;;;;;;;11.77;7.65;;;0.90;58.00;;;;;;5001630;28;46837;-64
2023/01/19 02:15:59;;;;;;;13.85;7.40;;;0.90;58.20;;;;;;5005719;28;46370;-64
2023/01/19 02:18:29;;;;;;;13.43;7.70;;;0.90;58.10;;;;;;5005193;28;46540;-64
2023/01/19 02:21:04;;;;;;;13.88;8.10;;;0.90;58.10;;;;;;5003142;28;46360;-64
2023/01/19 02:23:48;;;;;;;11.20;7.60;;;0.80;58.00;;;;;;5003010;28;45944;-65
2023/01/19 02:26:38;;;;;;;13.43;8.73;;;0.80;58.20;;;;;;5004408;28;46504;-65
2023/01/19 02:29:10;;;;;;;15.10;8.38;;;0.80;58.30;;;;;;5005831;28;45858;-64
2023/01/19 02:31:37;;;;;;;14.70;7.43;;;0.70;58.30;;;;;;5005868;28;46422;-65
2023/01/19 02:34:05;;;;;;;10.98;7.70;;;0.70;58.50;;;;;;5004867;28;46804;-63
2023/01/19 02:36:46;;;;;;;12.25;7.50;;;0.70;58.50;;;;;;5001158;28;46429;-64
2023/01/19 02:39:12;;;;;;;12.02;7.30;;;0.60;58.50;;;;;;5004211;28;46836;-64
2023/01/19 02:41:43;;;;;;;14.15;7.90;;;0.50;58.40;;;;;;5005723;28;46430;-64
2023/01/19 02:44:09;;;;;;;12.82;8.13;;;0.50;58.50;;;;;;5002480;28;46283;-65
2023/01/19 02:46:37;;;;;;;11.32;7.45;;;0.50;58.60;;;;;;5006879;28;46551;-65
2023/01/19 02:49:02;;;;;;;12.13;8.02;;;0.40;58.50;;;;;;5004066;28;45926;-64
2023/01/19 02:51:28;;;;;;;14.30;7.73;;;0.40;58.80;;;;;;5002865;28;46599;-62
2023/01/19 02:54:02;;;;;;;11.93;7.53;;;0.30;58.80;;;;;;5003366;28;46507;-65
2023/01/19 02:56:41;;;;;;;14.43;8.60;;;0.20;58.70;;;;;;5007761;28;46706;-65
2023/01/19 02:59:32;;;;;;;12.45;7.03;;;0.20;58.80;;;;;;5004507;28;46417;-64
2023/01/19 03:02:08;;;;;;;11.95;7.38;;;0.20;58.90;;;;;;5003866;28;48090;-64
2023/01/19 03:04:45;;;;;;;12.00;7.68;;;0.00;59.00;;;;;;5006549;28;46460;-64
2023/01/19 03:07:25;;;;;;;14.52;7.57;;;-0.10;59.30;;;;;;5008034;28;45808;-65
2023/01/19 03:10:22;;;;;;;12.70;7.75;;;-0.20;59.30;;;;;;5006941;28;46377;-65
2023/01/19 03:12:57;;;;;;;17.13;8.25;;;-0.20;59.30;;;;;;5008267;28;46650;-64
2023/01/19 03:15:35;;;;;;;13.18;8.10;;;-0.20;59.20;;;;;;5007177;28;46616;-65
2023/01/19 03:18:05;;;;;;;20.08;8.73;;;-0.20;58.90;;;;;;5006719;28;46386;-63
2023/01/19 03:20:31;;;;;;;21.38;7.93;;;-0.10;58.60;;;;;;5004423;28;46653;-65
2023/01/19 03:23:03;;;;;;;12.45;7.65;;;-0.10;58.30;;;;;;5006840;28;47222;-63
2023/01/19 03:25:33;;;;;;;15.45;8.95;;;0.00;58.10;;;;;;5005052;28;46400;-65
2023/01/19 03:28:00;;;;;;;13.55;8.82;;;0.00;58.00;;;;;;5006745;28;46457;-64
2023/01/19 03:30:31;;;;;;;14.90;8.57;;;0.10;58.10;;;;;;5005487;28;46688;-65
2023/01/19 03:33:13;;;;;;;17.60;7.88;;;0.00;58.20;;;;;;5006294;28;46460;-65
2023/01/19 03:35:44;;;;;;;13.68;7.93;;;-0.10;58.20;;;;;;5004791;28;45955;-64
2023/01/19 03:38:15;;;;;;;15.15;9.02;;;-0.10;58.40;;;;;;5006978;28;46477;-64
2023/01/19 03:40:41;;;;;;;14.50;8.63;;;0.00;58.30;;;;;;5003118;28;46368;-64
2023/01/19 03:43:07;;;;;;;17.42;9.68;;;0.00;58.20;;;;;;5006056;28;46569;-64
2023/01/19 03:45:37;;;;;;;15.80;9.65;;;0.00;58.10;;;;;;5006415;28;46498;-64
2023/01/19 03:48:03;;;;;;;15.02;9.10;;;-0.10;58.20;;;;;;5003313;28;45818;-63
2023/01/19 03:50:29;;;;;;;15.77;9.13;;;-0.10;59.40;;;;;;5005180;28;46387;-65
2023/01/19 03:53:07;;;;;;;16.08;9.98;;;-0.10;58.30;;;;;;5005815;28;46251;-65
2023/01/19 03:55:35;;;;;;;18.35;9.45;;;-0.10;58.30;;;;;;5005529;28;46574;-64
2023/01/19 03:58:01;;;;;;;19.13;10.38;;;-0.10;58.10;;;;;;5020244;28;46411;-64
2023/01/19 04:00:27;;;;;;;15.87;9.47;;;0.10;58.30;;;;;;5006323;28;45838;-63
2023/01/19 04:02:54;;;;;;;16.60;9.57;;;-0.10;58.10;;;;;;5007460;28;46493;-65
2023/01/19 04:05:20;;;;;;;23.90;10.02;;;-0.10;58.10;;;;;;5006226;28;46628;-65
2023/01/19 04:07:48;;;;;;;20.23;9.47;;;-0.10;58.30;;;;;;5005751;28;45867;-65
2023/01/19 04:10:15;;;;;;;15.25;9.55;;;-0.10;58.20;;;;;;5005244;28;46457;-64
2023/01/19 04:12:40;;;;;;;17.00;9.77;;;-0.20;58.30;;;;;;5005829;28;46512;-65
2023/01/19 04:15:07;;;;;;;16.83;10.40;;;-0.20;58.30;;;;;;5005019;28;46406;-65
2023/01/19 04:17:32;;;;;;;23.25;10.95;;;-0.30;58.30;;;;;;5003005;28;46410;-65
2023/01/19 04:19:59;;;;;;;16.70;10.13;;;-0.40;58.50;;;;;;5004552;28;46399;-65
2023/01/19 04:22:25;;;;;;;15.80;9.18;;;-0.40;58.60;;;;;;5004683;28;46579;-65
2023/01/19 04:24:50;;;;;;;19.75;9.60;;;-0.40;58.90;;;;;;5003422;28;46453;-66
2023/01/19 04:27:17;;;;;;;15.13;9.23;;;-0.50;59.00;;;;;;5004749;28;46459;-64
2023/01/19 04:29:42;;;;;;;16.92;10.90;;;-0.60;59.00;;;;;;5004943;28;46444;-64
2023/01/19 04:32:08;;;;;;;15.63;9.63;;;-0.60;59.20;;;;;;5003853;28;46457;-65
2023/01/19 04:34:34;;;;;;;17.33;10.80;;;-0.60;59.10;;;;;;5003791;28;46557;-64
2023/01/19 04:36:59;;;;;;;18.07;10.70;;;-0.50;59.00;;;;;;5006524;28;46406;-64
2023/01/19 04:39:26;;;;;;;16.47;9.67;;;-0.50;58.90;;;;;;5003843;28;46524;-65
2023/01/19 04:41:52;;;;;;;16.50;10.15;;;-0.50;58.60;;;;;;5007224;28;46422;-65
2023/01/19 04:44:18;;;;;;;17.73;10.30;;;-0.40;58.40;;;;;;4963693;28;1178948;-63
2023/01/19 04:46:43;;;;;;;19.03;10.37;;;-0.40;58.30;;;;;;5008208;28;46441;-64
2023/01/19 04:49:09;;;;;;;19.67;9.77;;;-0.20;58.10;;;;;;5008391;28;46311;-64
2023/01/19 04:51:35;;;;;;;17.97;9.90;;;-0.30;57.90;;;;;;5006690;28;49223;-64
2023/01/19 04:54:02;;;;;;;18.95;10.55;;;-0.20;57.90;;;;;;5005822;28;46334;-63
2023/01/19 04:56:28;;;;;;;20.75;11.15;;;-0.30;58.00;;;;;;5005484;28;45819;-64
2023/01/19 04:58:54;;;;;;;14.07;8.70;;;-0.40;58.10;;;;;;5007062;28;46550;-65
2023/01/19 05:01:19;;;;;;;17.17;9.47;;;-0.50;58.20;;;;;;5005525;28;46497;-63
2023/01/19 05:03:45;;;;;;;17.33;9.40;;;-0.60;58.50;;;;;;5006822;28;46466;-65
2023/01/19 05:06:11;;;;;;;15.50;8.93;;;-0.70;58.80;;;;;;5007476;28;46440;-65
2023/01/19 05:08:37;;;;;;;16.03;8.97;;;-0.80;59.20;;;;;;5005426;28;46435;-66
2023/01/19 05:11:03;;;;;;;13.43;8.50;;;-1.00;59.40;;;;;;5006387;28;48220;-65
2023/01/19 05:13:29;;;;;;;15.50;8.87;;;-1.10;59.80;;;;;;5007290;28;46473;-65
2023/01/19 05:15:54;;;;;;;14.00;9.60;;;-1.30;60.00;;;;;;5006250;28;46459;-65
2023/01/19 05:18:20;;;;;;;14.13;8.97;;;-1.40;60.00;;;;;;5003731;28;46632;-65
2023/01/19 05:20:45;;;;;;;13.93;9.03;;;-1.30;60.00;;;;;;5005117;28;46734;-66
2023/01/19 05:23:11;;;;;;;13.57;8.67;;;-1.50;59.90;;;;;;5006938;28;47124;-65
2023/01/19 05:25:36;;;;;;;18.97;8.90;;;-1.50;60.00;;;;;;5006889;28;46550;-65
2023/01/19 05:28:02;;;;;;;14.83;8.17;;;-1.50;60.00;;;;;;5006900;28;46379;-65
2023/01/19 05:30:28;;;;;;;15.60;9.57;;;-1.70;60.00;;;;;;5005828;28;46367;-66
2023/01/19 05:32:54;;;;;;;14.60;8.80;;;-1.70;60.20;;;;;;5006669;28;46586;-64
2023/01/19 05:35:19;;;;;;;14.53;8.80;;;-1.90;60.20;;;;;;5006954;28;45953;-64
2023/01/19 05:37:45;;;;;;;13.93;8.37;;;-1.90;60.50;;;;;;5005504;28;46463;-65
2023/01/19 05:40:11;;;;;;;15.33;8.43;;;-2.10;60.40;;;;;;5020330;28;48486;-65
2023/01/19 05:42:37;;;;;;;14.47;8.60;;;-2.30;60.70;;;;;;5005591;28;46447;-65
2023/01/19 05:45:03;;;;;;;13.30;8.10;;;-2.40;60.90;;;;;;5005769;28;46493;-65
2023/01/19 05:47:29;;;;;;;13.07;8.27;;;-2.50;60.90;;;;;;5006820;28;46630;-65
2023/01/19 05:49:55;;;;;;;14.30;9.10;;;-2.50;60.80;;;;;;5006613;28;46417;-65
2023/01/19 05:52:20;;;;;;;22.67;9.33;;;-2.60;60.70;;;;;;5004498;28;46556;-64
2023/01/19 05:54:47;;;;;;;14.50;9.00;;;-2.60;60.60;;;;;;5007384;28;46430;-65
2023/01/19 05:57:13;;;;;;;16.00;9.65;;;-2.70;60.40;;;;;;5006590;28;46319;-65
2023/01/19 05:59:39;;;;;;;18.73;8.20;;;-2.70;60.50;;;;;;5005556;28;47107;-65
2023/01/19 06:02:05;;;;;;;14.90;8.32;;;-2.80;60.50;;;;;;5003791;28;46461;-66
2023/01/19 06:04:30;;;;;;;13.00;8.77;;;-3.00;60.70;;;;;;5005448;28;46389;-63
2023/01/19 06:06:56;;;;;;;18.37;8.90;;;-3.00;60.90;;;;;;5005262;28;46354;-66
2023/01/19 06:09:22;;;;;;;16.93;9.07;;;-3.10;60.90;;;;;;5004716;28;46517;-65
2023/01/19 06:11:47;;;;;;;17.80;8.50;;;-3.10;60.90;;;;;;5006216;28;46474;-66
2023/01/19 06:14:13;;;;;;;15.20;8.47;;;-3.10;60.90;;;;;;5006196;28;45839;-66
2023/01/19 06:16:39;;;;;;;18.00;9.50;;;-3.20;60.80;;;;;;5005124;28;46409;-65
2023/01/19 06:19:05;;;;;;;19.75;9.50;;;-3.20;60.80;;;;;;5006179;28;46427;-64
2023/01/19 06:21:31;;;;;;;22.63;10.20;;;-3.20;60.60;;;;;;5011877;28;47000;-64
2023/01/19 06:23:57;;;;;;;21.17;10.70;;;-3.10;60.50;;;;;;5005094;28;46445;-65
2023/01/19 06:26:23;;;;;;;22.58;9.57;;;-3.10;60.30;;;;;;5005799;28;46586;-65
2023/01/19 06:28:50;;;;;;;19.38;10.20;;;-3.10;60.20;;;;;;5006760;28;47073;-66
2023/01/19 06:31:16;;;;;;;21.70;10.40;;;-3.00;60.40;;;;;;5005568;28;46515;-65
2023/01/19 06:33:42;;;;;;;24.27;10.73;;;-3.20;60.30;;;;;;5005175;28;46167;-64
2023/01/19 06:36:08;;;;;;;14.67;9.63;;;-3.20;60.30;;;;;;5002687;28;45860;-64
2023/01/19 06:38:33;;;;;;;19.50;11.20;;;-3.30;60.60;;;;;;5006096;28;46433;-64
2023/01/19 06:41:01;;;;;;;16.17;10.73;;;-3.40;60.60;;;;;;5006320;28;46425;-64
2023/01/19 06:43:27;;;;;;;21.20;11.20;;;-3.30;60.50;;;;;;5003400;28;46603;-64
2023/01/19 06:45:53;;;;;;;18.70;10.87;;;-3.30;60.40;;;;;;5005823;28;46642;-65
2023/01/19 06:48:19;;;;;;;16.08;10.10;;;-3.20;60.50;;;;;;5005556;28;46448;-65
2023/01/19 06:50:45;;;;;;;19.10;10.18;;;-3.20;60.20;;;;;;5004279;28;46424;-65
2023/01/19 06:53:12;;;;;;;20.27;12.00;;;-3.10;60.00;;;;;;5004915;28;45838;-65
2023/01/19 06:55:38;;;;;;;19.13;11.77;;;-3.10;60.00;;;;;;5006197;28;46791;-66
2023/01/19 06:58:03;;;;;;;17.95;10.95;;;-3.00;59.80;;;;;;5006748;28;47006;-65
2023/01/19 07:00:29;;;;;;;20.70;12.10;;;-3.00;59.70;;;;;;4996143;28;45811;-66
2023/01/19 07:02:55;;;;;;;20.90;12.00;;;-2.90;59.60;;;;;;4998818;28;46426;-65
2023/01/19 07:05:21;;;;;;;18.90;11.50;;;-2.90;59.50;;;;;;5000062;28;46447;-68
2023/01/19 07:07:54;;;;;;;21.23;11.23;;;-2.80;59.80;;;;;;5001620;28;46419;-65
2023/01/19 07:10:20;;;;;;;18.98;11.07;;;-3.00;59.80;;;;;;4999509;28;46345;-65
2023/01/19 07:12:46;;;;;;;22.85;12.05;;;-2.90;59.80;;;;;;4998041;28;46419;-64
2023/01/19 07:15:16;;;;;;;27.20;12.70;;;-2.90;59.70;;;;;;4999575;28;46828;-66
2023/01/19 07:17:42;;;;;;;23.02;11.25;;;-2.80;59.40;;;;;;5000717;28;46468;-64
2023/01/19 07:20:13;;;;;;;17.83;11.48;;;-2.70;59.30;;;;;;5001830;28;46885;-63
2023/01/19 07:22:40;;;;;;;21.63;11.20;;;-2.60;59.00;;;;;;5001714;28;46453;-64
2023/01/19 07:25:06;;;;;;;19.60;11.75;;;-2.60;59.20;;;;;;5004037;28;46355;-64
2023/01/19 07:27:31;;;;;;;20.00;11.27;;;-2.60;59.10;;;;;;5001856;28;46456;-64
2023/01/19 07:29:57;;;;;;;16.77;9.60;;;-2.60;59.30;;;;;;5001042;28;46445;-62
2023/01/19 07:32:22;;;;;;;15.40;9.83;;;-2.60;59.40;;;;;;5002358;28;46474;-64
2023/01/19 07:34:48;;;;;;;21.03;10.20;;;-2.60;59.40;;;;;;5001549;28;46559;-63
2023/01/19 07:37:14;;;;;;;17.73;9.77;;;-2.50;59.40;;;;;;5001973;28;46479;-63
2023/01/19 07:39:40;;;;;;;17.30;10.47;;;-2.40;59.50;;;;;;5002568;28;46596;-64
2023/01/19 07:42:06;;;;;;;17.90;9.50;;;-2.50;59.30;;;;;;5005635;28;46442;-64
2023/01/19 07:44:32;;;;;;;20.20;10.07;;;-2.40;59.20;;;;;;5008665;28;46414;-65
2023/01/19 07:46:57;;;;;;;16.50;9.30;;;-2.30;59.10;;;;;;5012163;28;47250;-63
2023/01/19 07:49:24;;;;;;;16.67;9.47;;;-2.30;59.20;;;;;;5010157;28;46291;-65
2023/01/19 07:51:49;;;;;;;18.90;9.43;;;-2.20;59.20;;;;;;5008657;28;45851;-64
2023/01/19 07:54:15;;;;;;;19.37;10.00;;;-2.20;59.20;;;;;;5005246;28;46413;-64
2023/01/19 07:56:40;;;;;;;19.20;11.00;;;-2.10;59.20;;;;;;5003118;28;47021;-65
2023/01/19 07:59:08;;;;;;;20.60;11.10;;;-2.10;59.10;;;;;;5002476;28;46370;-63
2023/01/19 08:01:34;;;;;;;20.20;11.40;;;-1.90;59.30;;;;;;5002895;28;46367;-65
2023/01/19 08:03:59;;;;;;;17.53;9.90;;;-2.00;59.20;;;;;;5004724;28;46369;-64
2023/01/19 08:06:45;;;;;;;15.47;9.90;;;-2.00;59.30;;;;;;5002535;28;46317;-65
2023/01/19 08:09:11;;;;;;;20.23;9.82;;;-1.90;59.20;;;;;;5002779;28;46349;-65
2023/01/19 08:11:37;;;;;;;20.83;10.43;;;-1.80;59.00;;;;;;5004316;28;46453;-64
2023/01/19 08:14:02;;;;;;;17.13;8.93;;;-1.80;58.70;;;;;;5003453;28;46015;-65
2023/01/19 08:16:28;;;;;;;16.57;9.20;;;-1.60;58.50;;;;;;5002422;28;46370;-66
2023/01/19 08:18:54;;;;;;;16.37;10.23;;;-1.50;58.40;;;;;;5020111;28;46542;-65
2023/01/19 08:21:20;;;;;;;18.90;10.90;;;-1.40;58.10;;;;;;5004338;28;46496;-65
2023/01/19 08:23:56;;;;;;;18.52;10.98;;;-1.20;57.80;;;;;;5003882;28;46512;-64
2023/01/19 08:26:33;;;;;;;17.08;9.50;;;-1.10;57.50;;;;;;5004828;28;47124;-66
2023/01/19 08:29:01;;;;;;;15.73;9.82;;;-0.90;57.40;;;;;;5001731;28;46895;-65
2023/01/19 08:31:27;;;;;;;16.77;9.63;;;-0.80;57.20;;;;;;5003245;28;46413;-64
2023/01/19 08:33:53;;;;;;;15.93;9.07;;;-0.70;57.20;;;;;;5002908;28;46572;-64
2023/01/19 08:36:20;;;;;;;21.63;10.30;;;-0.60;57.10;;;;;;4999007;28;46016;-66
2023/01/19 08:38:46;;;;;;;16.58;9.10;;;-0.50;57.00;;;;;;5000722;28;46659;-66
2023/01/19 08:41:12;;;;;;;18.50;9.15;;;-0.50;56.70;;;;;;4999904;28;46398;-65
2023/01/19 08:43:38;;;;;;;19.27;10.77;;;-0.40;56.60;;;;;;5002207;28;46588;-66
2023/01/19 08:46:05;;;;;;;17.10;9.33;;;-0.20;56.80;;;;;;5003341;28;46414;-66
2023/01/19 08:48:30;;;;;;;16.77;8.35;;;-0.20;56.70;;;;;;5001227;28;46306;-67
2023/01/19 08:50:56;;;;;;;14.03;8.50;;;-0.10;56.80;;;;;;5003610;28;46397;-67
2023/01/19 08:53:22;;;;;;;13.97;8.43;;;-0.10;56.80;;;;;;5001643;28;46393;-66
2023/01/19 08:55:49;;;;;;;14.00;8.85;;;-0.10;56.80;;;;;;5002422;28;47065;-65
2023/01/19 08:58:14;;;;;;;15.60;9.50;;;-0.10;56.80;;;;;;4998581;28;46550;-66
2023/01/19 09:00:40;;;;;;;15.73;9.10;;;0.00;56.90;;;;;;5004875;28;46461;-67
2023/01/19 09:03:11;;;;;;;17.53;8.33;;;0.10;57.00;;;;;;5000990;28;46675;-67
2023/01/19 09:05:37;;;;;;;14.43;7.97;;;0.20;57.10;;;;;;5003024;28;47112;-65
2023/01/19 09:08:09;;;;;;;17.92;8.70;;;0.40;57.00;;;;;;5001490;28;46425;-67
2023/01/19 09:10:36;;;;;;;19.48;8.40;;;0.40;56.80;;;;;;5004173;28;46466;-67
2023/01/19 09:13:07;;;;;;;13.70;7.85;;;0.50;56.80;;;;;;5004750;28;46658;-66
2023/01/19 09:15:34;;;;;;;13.40;7.75;;;0.60;56.70;;;;;;4999844;28;46047;-65
2023/01/19 09:18:01;;;;;;;14.18;8.23;;;0.70;56.60;;;;;;5018586;28;46580;-66
2023/01/19 09:20:29;;;;;;;15.30;8.25;;;0.90;56.60;;;;;;5000730;28;46411;-66
2023/01/19 09:22:58;;;;;;;12.68;7.60;;;1.00;56.40;;;;;;5001830;28;46525;-65
2023/01/19 09:25:24;;;;;;;12.55;7.35;;;1.00;56.50;;;;;;5003383;28;46490;-66
2023/01/19 09:27:50;;;;;;;13.53;8.30;;;1.00;56.60;;;;;;5001079;28;46356;-64
2023/01/19 09:30:16;;;;;;;12.30;7.53;;;1.00;56.60;;;;;;5001853;28;46543;-67
2023/01/19 09:32:42;;;;;;;18.55;9.50;;;1.00;56.60;;;;;;5000853;28;46652;-67
2023/01/19 09:35:08;;;;;;;12.10;7.90;;;1.00;56.80;;;;;;5002372;28;46391;-67
2023/01/19 09:37:33;;;;;;;12.07;7.03;;;1.00;56.70;;;;;;5003397;28;46282;-68
2023/01/19 09:39:59;;;;;;;12.83;8.07;;;1.10;56.90;;;;;;5002925;28;46767;-67
2023/01/19 09:42:50;;;;;;;15.43;9.13;;;1.10;56.60;;;;;;5001301;28;46617;-64
2023/01/19 09:45:38;;;;;;;14.43;7.82;;;1.20;56.50;;;;;;5001780;28;46414;-67
2023/01/19 09:48:15;;;;;;;11.70;7.10;;;1.20;56.20;;;;;;5002937;28;46466;-68
2023/01/19 09:50:46;;;;;;;11.70;7.32;;;1.20;56.20;;;;;;5001253;28;46495;-63
2023/01/19 09:53:24;;;;;;;11.02;7.00;;;1.20;56.10;;;;;;4997178;28;46420;-65
2023/01/19 09:55:50;;;;;;;10.32;6.85;;;1.30;56.00;;;;;;5000700;28;46302;-64
2023/01/19 09:58:17;;;;;;;13.57;7.60;;;1.40;55.50;;;;;;4999618;28;47793;-64
2023/01/19 10:00:53;;;;;;;16.13;6.85;;;1.40;55.40;;;;;;4999485;28;46432;-64
2023/01/19 10:03:19;;;;;;;12.40;7.93;;;1.40;55.50;;;;;;5000612;28;46475;-64
2023/01/19 10:05:51;;;;;;;12.23;6.38;;;1.40;55.50;;;;;;5004869;28;47372;-64
2023/01/19 10:08:35;;;;;;;13.63;7.30;;;1.50;55.30;;;;;;4998628;28;46735;-64
2023/01/19 10:11:01;;;;;;;12.05;8.13;;;1.50;55.20;;;;;;5002189;28;45795;-66
2023/01/19 10:13:45;;;;;;;14.77;6.40;;;1.50;55.20;;;;;;4999145;28;46562;-65
2023/01/19 10:16:38;;;;;;;11.25;6.55;;;1.50;55.10;;;;;;5001429;28;46995;-67
2023/01/19 10:19:26;;;;;;;11.05;6.50;;;1.60;54.90;;;;;;4998387;28;46311;-67
2023/01/19 10:21:54;;;;;;;17.10;6.97;;;1.70;54.70;;;;;;4999609;28;46435;-68
2023/01/19 10:24:41;;;;;;;12.45;6.80;;;1.80;54.50;;;;;;4999006;28;46609;-68
2023/01/19 10:27:19;;;;;;;12.55;7.00;;;1.80;54.40;;;;;;5001087;28;46451;-66
2023/01/19 10:29:45;;;;;;;13.05;6.68;;;2.10;54.20;;;;;;5001460;28;46528;-65
2023/01/19 10:32:34;;;;;;;11.88;6.18;;;2.30;53.90;;;;;;5000979;28;46525;-67
2023/01/19 10:35:03;;;;;;;12.57;7.35;;;2.40;53.40;;;;;;5002427;28;46619;-66
2023/01/19 10:37:33;;;;;;;28.65;14.50;;;2.50;53.40;;;;;;4996216;28;46343;-66
2023/01/19 10:40:31;;;;;;;16.00;7.40;;;2.50;53.40;;;;;;5001925;28;46582;-65
2023/01/19 10:42:57;;;;;;;16.52;8.93;;;2.40;53.40;;;;;;4992378;28;46457;-65
2023/01/19 10:45:25;;;;;;;31.33;16.20;;;2.30;53.50;;;;;;5001812;28;46387;-67
2023/01/19 10:47:53;;;;;;;15.60;6.28;;;2.30;53.50;;;;;;5001561;28;46477;-64
2023/01/19 10:50:32;;;;;;;10.70;6.25;;;2.30;53.60;;;;;;4998042;28;46401;-65
2023/01/19 10:53:04;;;;;;;11.60;6.35;;;2.30;53.50;;;;;;5003679;28;46419;-65
2023/01/19 10:55:40;;;;;;;11.40;6.68;;;2.30;53.70;;;;;;5002873;28;46335;-65
2023/01/19 10:58:29;;;;;;;13.45;6.00;;;2.50;53.40;;;;;;5001867;28;45945;-66
2023/01/19 11:01:10;;;;;;;9.10;6.28;;;2.40;53.10;;;;;;4999238;28;46912;-66
2023/01/19 11:03:36;;;;;;;8.70;5.05;;;2.40;53.10;;;;;;5000283;28;46472;-66
2023/01/19 11:06:17;;;;;;;10.03;5.50;;;2.50;53.00;;;;;;5000010;28;46475;-67
2023/01/19 11:08:44;;;;;;;9.40;5.75;;;2.60;52.80;;;;;;5000800;28;46387;-65
2023/01/19 11:11:11;;;;;;;10.15;5.70;;;2.70;52.70;;;;;;4999157;28;46407;-65
2023/01/19 11:13:38;;;;;;;11.40;6.15;;;2.80;52.00;;;;;;4999767;28;46490;-65
2023/01/19 11:16:05;;;;;;;9.30;5.03;;;3.00;51.50;;;;;;5000683;28;46404;-65
2023/01/19 11:18:36;;;;;;;8.60;5.28;;;3.00;51.10;;;;;;5000380;28;46485;-64
2023/01/19 11:21:11;;;;;;;7.90;5.22;;;3.20;50.90;;;;;;4998263;28;46570;-65
2023/01/19 11:23:45;;;;;;;8.07;5.20;;;3.20;50.60;;;;;;4999585;28;46468;-65
2023/01/19 11:26:28;;;;;;;8.23;6.05;;;3.30;50.70;;;;;;5001265;28;46373;-64
2023/01/19 11:28:56;;;;;;;8.05;4.35;;;3.40;50.40;;;;;;4998584;28;48498;-65
2023/01/19 11:31:28;;;;;;;7.45;4.00;;;3.50;50.00;;;;;;5002537;28;46429;-63
2023/01/19 11:33:57;;;;;;;6.88;4.75;;;3.40;50.20;;;;;;5004558;28;46469;-66
2023/01/19 11:36:28;;;;;;;8.45;4.82;;;3.30;50.10;;;;;;5003220;28;46332;-64
2023/01/19 11:38:58;;;;;;;8.80;5.20;;;3.20;49.20;;;;;;5006459;28;46393;-64
2023/01/19 11:41:28;;;;;;;6.68;4.25;;;3.30;49.10;;;;;;5005941;28;46401;-65
2023/01/19 11:44:08;;;;;;;8.05;5.20;;;3.40;49.10;;;;;;5003318;28;46398;-64
2023/01/19 11:46:38;;;;;;;9.63;5.43;;;3.50;48.80;;;;;;5003861;28;46477;-65
2023/01/19 11:49:11;;;;;;;8.50;5.13;;;3.50;48.40;;;;;;5002516;28;46735;-63
2023/01/19 11:51:47;;;;;;;8.63;4.78;;;3.70;48.00;;;;;;5001308;28;46434;-65
2023/01/19 11:54:19;;;;;;;9.10;4.75;;;3.70;47.20;;;;;;5001662;28;46518;-65
2023/01/19 11:56:47;;;;;;;8.60;4.70;;;3.70;47.20;;;;;;5003548;28;46743;-66
2023/01/19 11:59:13;;;;;;;5.75;4.07;;;3.80;47.30;;;;;;5001441;28;46521;-66
2023/01/19 12:01:46;;;;;;;6.07;4.13;;;3.80;47.30;;;;;;5002500;28;46560;-66
2023/01/19 12:04:29;;;;;;;6.70;4.25;;;3.80;47.30;;;;;;5000964;28;46498;-65
2023/01/19 12:06:57;;;;;;;7.90;3.87;;;3.80;47.10;;;;;;5004977;28;46557;-67
2023/01/19 12:09:28;;;;;;;7.82;4.57;;;3.90;47.00;;;;;;5001592;28;46480;-65
2023/01/19 12:11:57;;;;;;;6.10;4.10;;;4.00;46.50;;;;;;5002659;28;46718;-66
2023/01/19 12:14:33;;;;;;;7.95;4.60;;;4.00;46.40;;;;;;5002414;28;46468;-67
2023/01/19 12:17:02;;;;;;;6.33;4.10;;;4.00;45.30;;;;;;5000795;28;46595;-66
2023/01/19 12:19:53;;;;;;;7.57;3.97;;;3.90;45.60;;;;;;5001974;28;47284;-63
2023/01/19 12:22:19;;;;;;;5.40;3.50;;;4.00;45.00;;;;;;5001147;28;46564;-64
2023/01/19 12:24:54;;;;;;;10.30;3.70;;;4.00;44.70;;;;;;5004121;28;46389;-66
2023/01/19 12:27:37;;;;;;;5.25;3.42;;;3.90;44.70;;;;;;5004621;28;45816;-65
2023/01/19 12:30:05;;;;;;;5.25;3.40;;;3.90;44.80;;;;;;5002908;28;47396;-64
2023/01/19 12:32:35;;;;;;;8.02;4.10;;;3.80;44.80;;;;;;5002321;28;46479;-65
2023/01/19 12:35:01;;;;;;;6.70;3.60;;;3.80;44.30;;;;;;5004614;28;46394;-64
2023/01/19 12:37:30;;;;;;;7.10;3.90;;;3.80;44.50;;;;;;5004027;28;46508;-66
2023/01/19 12:39:59;;;;;;;5.10;3.70;;;3.70;44.40;;;;;;5000976;28;46767;-65
2023/01/19 12:42:26;;;;;;;6.20;3.92;;;3.80;44.40;;;;;;4998876;28;46523;-65
2023/01/19 12:45:06;;;;;;;6.03;4.07;;;3.80;44.10;;;;;;5001275;28;46400;-62
2023/01/19 12:47:33;;;;;;;9.10;3.70;;;3.70;44.00;;;;;;5002010;28;46299;-65
2023/01/19 12:50:06;;;;;;;5.93;3.97;;;3.80;44.00;;;;;;5002541;28;46448;-64
2023/01/19 12:52:34;;;;;;;7.13;4.25;;;3.80;43.80;;;;;;5002332;28;45986;-64
2023/01/19 12:55:00;;;;;;;6.70;3.72;;;3.90;43.50;;;;;;5004669;28;46330;-62
2023/01/19 12:57:33;;;;;;;8.93;4.70;;;3.80;43.70;;;;;;5007458;28;46563;-63
2023/01/19 13:00:04;;;;;;;6.88;3.83;;;3.80;43.60;;;;;;5002649;28;46307;-63